LFPO 121000Z AUTO 26004KT 9999 FEW048 BKN068 02/M00 Q1011

ElémentsDécodage
LFPO Station météo située sur l'aérodrome de PARIS Orly
121000Z émis le 12 du mois à 10h00 UTC
AUTO Bulletin édité par un automate
26004KT vent du 260°, 04 noeuds
9999 visibilité horizontale supérieure à 10 Km
FEW048 nuages rares (1/8 à 2/8) à 4800 pieds
BKN068 nuages morcelés (5/8 à 7/8) à 6800 pieds
02/M00 température 02°C, point de rosée 00°C
 soit une humidité relative de 87%
Q1011 la pression au niveau de la mer (QNH) est de 1011 hPa